createdAt,value
2023-01-06T00:01:34.900Z,9.52
2023-01-06T00:04:02.665Z,5.38
2023-01-06T00:06:31.182Z,2.95
2023-01-06T00:09:03.306Z,6.88
2023-01-06T00:11:31.845Z,3.78
2023-01-06T00:13:59.497Z,3.27
2023-01-06T00:16:26.849Z,3.50
2023-01-06T00:18:56.446Z,5.07
2023-01-06T00:21:24.445Z,3.00
2023-01-06T00:23:51.698Z,8.43
2023-01-06T00:26:19.149Z,11.38
2023-01-06T00:28:47.736Z,4.57
2023-01-06T00:31:16.590Z,2.67
2023-01-06T00:33:44.313Z,4.07
2023-01-06T00:36:13.256Z,6.82
2023-01-06T00:38:40.936Z,3.90
2023-01-06T00:41:30.634Z,3.97
2023-01-06T00:43:58.697Z,7.05
2023-01-06T00:46:28.503Z,8.65
2023-01-06T00:49:04.995Z,7.68
2023-01-06T00:51:39.548Z,10.82
2023-01-06T00:54:10.283Z,3.50
2023-01-06T00:56:40.025Z,5.47
2023-01-06T00:59:09.386Z,4.90
2023-01-06T01:01:37.196Z,3.63
2023-01-06T01:04:04.987Z,3.40
2023-01-06T01:06:32.746Z,4.38
2023-01-06T01:09:00.655Z,4.82
2023-01-06T01:11:47.079Z,4.38
2023-01-06T01:14:17.423Z,5.78
2023-01-06T01:16:45.021Z,3.35
2023-01-06T01:19:13.025Z,4.10
2023-01-06T01:21:40.617Z,3.15
2023-01-06T01:24:08.368Z,7.65
2023-01-06T01:26:35.572Z,7.40
2023-01-06T01:29:03.114Z,3.20
2023-01-06T01:31:30.861Z,3.33
2023-01-06T01:33:58.148Z,3.05
2023-01-06T01:36:25.380Z,3.42
2023-01-06T01:38:52.597Z,3.33
2023-01-06T01:41:22.679Z,2.10
2023-01-06T01:43:56.356Z,2.15
2023-01-06T01:46:35.676Z,5.43
2023-01-06T01:49:16.318Z,7.00
2023-01-06T01:51:46.722Z,1.98
2023-01-06T01:54:29.079Z,43.70
2023-01-06T01:57:14.577Z,6.95
2023-01-06T01:59:44.890Z,3.70
2023-01-06T02:02:15.692Z,5.95
2023-01-06T02:04:49.218Z,3.22
2023-01-06T02:07:17.576Z,6.00
2023-01-06T02:10:17.594Z,2.90
2023-01-06T02:12:48.706Z,2.88
2023-01-06T02:15:31.650Z,9.73
2023-01-06T02:18:28.876Z,4.55
2023-01-06T02:21:17.197Z,3.70
2023-01-06T02:24:18.080Z,7.55
2023-01-06T02:27:12.354Z,8.27
2023-01-06T02:30:04.858Z,4.68
2023-01-06T02:33:15.013Z,3.35
2023-01-06T02:36:03.033Z,3.85
2023-01-06T02:38:37.435Z,3.35
2023-01-06T02:41:46.033Z,3.35
2023-01-06T02:44:39.655Z,4.60
2023-01-06T02:47:23.269Z,4.00
2023-01-06T02:50:03.436Z,7.68
2023-01-06T02:52:40.024Z,5.82
2023-01-06T02:55:32.636Z,4.40
2023-01-06T02:58:14.951Z,3.22
2023-01-06T03:01:01.226Z,6.80
2023-01-06T03:03:33.776Z,5.90
2023-01-06T03:06:11.278Z,8.52
2023-01-06T03:08:40.559Z,4.40
2023-01-06T03:11:07.981Z,7.22
2023-01-06T03:14:10.617Z,4.00
2023-01-06T03:16:38.608Z,7.50
2023-01-06T03:19:06.342Z,5.85
2023-01-06T03:21:38.845Z,6.68
2023-01-06T03:24:09.973Z,6.03
2023-01-06T03:26:41.104Z,2.45
2023-01-06T03:29:12.745Z,5.70
2023-01-06T03:31:48.616Z,20.10
2023-01-06T03:34:40.827Z,8.15
2023-01-06T03:37:55.128Z,8.57
2023-01-06T03:40:30.293Z,5.30
2023-01-06T03:43:12.751Z,8.43
2023-01-06T03:46:07.491Z,12.82
2023-01-06T03:49:05.013Z,3.03
2023-01-06T03:51:44.128Z,2.65
2023-01-06T03:54:47.227Z,12.25
2023-01-06T03:57:17.622Z,6.28
2023-01-06T04:00:04.449Z,13.88
2023-01-06T04:02:41.497Z,3.15
2023-01-06T04:05:19.307Z,2.83
2023-01-06T04:07:47.965Z,2.67
2023-01-06T04:10:21.057Z,4.32
2023-01-06T04:12:51.304Z,3.90
2023-01-06T04:15:26.081Z,7.47
2023-01-06T04:17:55.967Z,8.90
2023-01-06T04:20:30.127Z,6.13
2023-01-06T04:23:06.541Z,5.07
2023-01-06T04:25:38.240Z,5.88
2023-01-06T04:28:16.494Z,7.97
2023-01-06T04:30:44.684Z,2.67
2023-01-06T04:33:12.264Z,6.68
2023-01-06T04:35:43.298Z,4.20
2023-01-06T04:38:10.592Z,11.18
2023-01-06T04:40:37.866Z,16.02
2023-01-06T04:43:05.077Z,10.57
2023-01-06T04:45:36.014Z,5.60
2023-01-06T04:48:03.627Z,6.03
2023-01-06T04:50:30.858Z,16.13
2023-01-06T04:52:58.135Z,5.55
2023-01-06T04:55:26.002Z,4.35
2023-01-06T04:57:53.223Z,6.22
2023-01-06T05:00:20.680Z,12.10
2023-01-06T05:02:48.009Z,3.10
2023-01-06T05:05:16.733Z,6.90
2023-01-06T05:07:43.864Z,15.50
2023-01-06T05:10:11.274Z,10.30
2023-01-06T05:12:38.846Z,4.18
2023-01-06T05:15:07.159Z,6.82
2023-01-06T05:17:34.587Z,6.63
2023-01-06T05:20:02.000Z,12.65
2023-01-06T05:22:29.335Z,12.07
2023-01-06T05:24:56.480Z,10.40
2023-01-06T05:27:23.691Z,11.05
2023-01-06T05:29:50.950Z,22.13
2023-01-06T05:32:18.256Z,8.07
2023-01-06T05:34:45.386Z,16.80
2023-01-06T05:37:12.504Z,8.70
2023-01-06T05:39:39.690Z,13.13
2023-01-06T05:42:06.917Z,15.02
2023-01-06T05:44:34.318Z,16.92
2023-01-06T05:47:01.512Z,16.00
2023-01-06T05:49:28.961Z,17.15
2023-01-06T05:51:56.649Z,11.05
2023-01-06T05:54:23.937Z,12.73
2023-01-06T05:56:51.183Z,11.88
2023-01-06T05:59:18.470Z,21.95
2023-01-06T06:01:45.655Z,12.40
2023-01-06T06:04:13.274Z,19.38
2023-01-06T06:06:40.443Z,17.13
2023-01-06T06:09:08.133Z,8.25
2023-01-06T06:11:35.287Z,14.10
2023-01-06T06:14:02.641Z,12.15
2023-01-06T06:16:29.830Z,16.77
2023-01-06T06:18:58.765Z,11.07
2023-01-06T06:21:29.837Z,17.20
2023-01-06T06:23:59.068Z,14.98
2023-01-06T06:26:26.791Z,14.93
2023-01-06T06:28:54.440Z,13.93
2023-01-06T06:31:26.096Z,10.30
2023-01-06T06:33:56.403Z,11.23
2023-01-06T06:36:24.453Z,8.93
2023-01-06T06:38:53.148Z,12.48
2023-01-06T06:41:21.704Z,6.97
2023-01-06T06:43:49.891Z,6.37
2023-01-06T06:46:18.293Z,17.35
2023-01-06T06:48:45.559Z,31.20
2023-01-06T06:51:18.661Z,17.27
2023-01-06T06:53:46.462Z,10.35
2023-01-06T06:56:15.999Z,14.30
2023-01-06T06:58:43.580Z,21.10
2023-01-06T07:01:17.948Z,26.80
2023-01-06T07:03:47.113Z,16.90
2023-01-06T07:06:19.178Z,12.85
2023-01-06T07:08:47.658Z,17.08
2023-01-06T07:11:15.250Z,10.15
2023-01-06T07:13:42.816Z,26.70
2023-01-06T07:16:10.792Z,18.48
2023-01-06T07:18:38.841Z,16.52
2023-01-06T07:21:07.028Z,27.05
2023-01-06T07:23:34.568Z,18.90
2023-01-06T07:26:02.765Z,10.63
2023-01-06T07:28:32.285Z,18.38
2023-01-06T07:31:00.746Z,23.27
2023-01-06T07:33:28.832Z,9.03
2023-01-06T07:35:57.463Z,11.82
2023-01-06T07:38:25.464Z,16.15
2023-01-06T07:40:53.182Z,17.95
2023-01-06T07:43:20.434Z,18.23
2023-01-06T07:45:48.343Z,12.40
2023-01-06T07:48:16.489Z,12.07
2023-01-06T07:50:44.053Z,38.90
2023-01-06T07:53:11.820Z,19.67
2023-01-06T07:55:38.941Z,19.17
2023-01-06T07:58:09.490Z,15.38
2023-01-06T08:00:37.498Z,11.65
2023-01-06T08:03:06.674Z,13.70
2023-01-06T08:05:43.473Z,16.08
2023-01-06T08:08:11.101Z,9.52
2023-01-06T08:10:42.622Z,8.30
2023-01-06T08:13:10.793Z,9.57
2023-01-06T08:15:38.788Z,25.88
2023-01-06T08:18:06.744Z,7.60
2023-01-06T08:20:34.154Z,24.77
2023-01-06T08:23:02.196Z,6.90
2023-01-06T08:25:29.488Z,4.57
2023-01-06T08:27:59.497Z,19.55
2023-01-06T08:30:27.413Z,23.48
2023-01-06T08:32:59.220Z,9.98
2023-01-06T08:35:26.763Z,11.18
2023-01-06T08:37:54.017Z,16.58
2023-01-06T08:40:21.191Z,5.82
2023-01-06T08:42:48.438Z,4.97
2023-01-06T08:45:15.710Z,10.65
2023-01-06T08:47:42.881Z,18.00
2023-01-06T08:50:10.334Z,10.60
2023-01-06T08:52:37.538Z,14.95
2023-01-06T08:55:05.398Z,10.15
2023-01-06T08:57:33.693Z,12.82
2023-01-06T09:00:00.898Z,3.47
2023-01-06T09:02:30.878Z,6.28
2023-01-06T09:04:58.212Z,11.32
2023-01-06T09:07:25.417Z,13.07
2023-01-06T09:09:52.639Z,3.95
2023-01-06T09:12:19.829Z,15.60
2023-01-06T09:14:47.048Z,17.02
2023-01-06T09:17:14.311Z,10.98
2023-01-06T09:19:41.530Z,12.95
2023-01-06T09:22:08.695Z,13.68
2023-01-06T09:24:35.950Z,4.78
2023-01-06T09:27:03.339Z,2.65
2023-01-06T09:29:30.657Z,9.52
2023-01-06T09:31:57.944Z,10.98
2023-01-06T09:34:25.118Z,22.60
2023-01-06T09:36:52.278Z,6.70
2023-01-06T09:39:19.665Z,12.88
2023-01-06T09:42:17.488Z,2.00
2023-01-06T09:45:02.262Z,8.60
2023-01-06T09:47:42.226Z,3.53
2023-01-06T09:50:15.864Z,4.18
2023-01-06T09:52:54.567Z,28.85
2023-01-06T09:55:45.628Z,4.90
2023-01-06T09:58:35.618Z,7.28
2023-01-06T10:01:17.644Z,4.30
2023-01-06T10:03:48.173Z,7.88
2023-01-06T10:06:25.711Z,4.88
2023-01-06T10:09:55.118Z,1.27
2023-01-06T10:12:40.644Z,8.13
2023-01-06T10:15:55.732Z,6.13
2023-01-06T10:19:22.173Z,8.88
2023-01-06T10:22:42.772Z,5.53
2023-01-06T10:25:27.108Z,5.30
2023-01-06T10:28:19.081Z,7.47
2023-01-06T10:30:50.872Z,8.73
2023-01-06T10:33:31.439Z,5.30
2023-01-06T10:36:00.341Z,3.10
2023-01-06T10:38:51.857Z,9.07
2023-01-06T10:41:26.808Z,5.47
2023-01-06T10:43:54.163Z,12.88
2023-01-06T10:46:21.542Z,12.88
2023-01-06T10:48:49.021Z,19.95
2023-01-06T10:51:38.720Z,13.65
2023-01-06T10:54:11.641Z,26.80
2023-01-06T10:56:47.955Z,18.42
2023-01-06T10:59:15.337Z,6.47
2023-01-06T11:01:57.595Z,9.90
2023-01-06T11:04:27.371Z,7.32
2023-01-06T11:07:02.811Z,6.15
2023-01-06T11:09:41.199Z,7.05
2023-01-06T11:12:26.415Z,3.85
2023-01-06T11:15:01.178Z,10.07
2023-01-06T11:17:29.584Z,12.45
2023-01-06T11:20:18.444Z,12.75
2023-01-06T11:22:46.426Z,15.90
2023-01-06T11:25:19.549Z,11.07
2023-01-06T11:27:47.728Z,14.05
2023-01-06T11:30:27.171Z,10.77
2023-01-06T11:32:55.281Z,8.95
2023-01-06T11:35:30.442Z,12.18
2023-01-06T11:37:59.297Z,18.52
2023-01-06T11:40:32.121Z,9.25
2023-01-06T11:43:27.897Z,9.02
2023-01-06T11:45:57.882Z,11.90
2023-01-06T11:48:54.921Z,21.52
2023-01-06T11:51:47.560Z,8.18
2023-01-06T11:54:39.374Z,9.63
2023-01-06T11:57:26.672Z,3.15
2023-01-06T12:00:32.015Z,3.75
2023-01-06T12:03:34.366Z,1.77
2023-01-06T12:06:39.862Z,3.75
2023-01-06T12:09:26.085Z,3.33
2023-01-06T12:11:58.774Z,2.13
2023-01-06T12:14:35.007Z,7.85
2023-01-06T12:17:53.445Z,13.23
2023-01-06T12:20:35.397Z,3.50
2023-01-06T12:23:13.396Z,18.38
2023-01-06T12:25:47.687Z,6.00
2023-01-06T12:28:41.322Z,3.03
2023-01-06T12:31:23.723Z,9.73
2023-01-06T12:34:24.070Z,5.75
2023-01-06T12:37:21.645Z,4.43
2023-01-06T12:40:09.330Z,4.63
2023-01-06T12:43:14.640Z,3.90
2023-01-06T12:46:17.587Z,4.15
2023-01-06T12:48:55.301Z,5.10
2023-01-06T12:52:01.124Z,3.90
2023-01-06T12:54:34.385Z,3.33
2023-01-06T12:57:31.604Z,2.33
2023-01-06T12:59:58.742Z,3.00
2023-01-06T13:03:22.615Z,4.13
2023-01-06T13:06:13.974Z,3.95
2023-01-06T13:09:24.590Z,2.28
2023-01-06T13:12:18.992Z,1.45
2023-01-06T13:15:11.312Z,10.85
2023-01-06T13:17:58.093Z,1.60
2023-01-06T13:21:10.905Z,9.20
2023-01-06T13:23:44.768Z,5.45
2023-01-06T13:26:42.478Z,2.58
2023-01-06T13:29:43.453Z,4.70
2023-01-06T13:32:15.139Z,1.10
2023-01-06T13:35:15.441Z,14.40
2023-01-06T13:38:30.110Z,4.43
2023-01-06T13:41:02.117Z,4.72
2023-01-06T13:43:32.936Z,5.57
2023-01-06T13:46:08.748Z,5.90
2023-01-06T13:48:42.534Z,8.48
2023-01-06T13:51:13.618Z,4.90
2023-01-06T13:53:44.443Z,2.10
2023-01-06T13:56:14.665Z,2.30
2023-01-06T13:58:46.833Z,2.28
2023-01-06T14:01:20.007Z,1.77
2023-01-06T14:03:50.243Z,6.32
2023-01-06T14:06:23.527Z,9.27
2023-01-06T14:08:57.900Z,5.63
2023-01-06T14:11:37.186Z,2.13
2023-01-06T14:14:28.972Z,3.05
2023-01-06T14:16:57.423Z,4.13
2023-01-06T14:19:30.848Z,6.43
2023-01-06T14:22:24.265Z,5.97
2023-01-06T14:24:59.461Z,4.47
2023-01-06T14:27:45.387Z,3.30
2023-01-06T14:30:30.469Z,5.38
2023-01-06T14:33:04.672Z,7.20
2023-01-06T14:35:41.454Z,10.45
2023-01-06T14:38:22.103Z,8.90
2023-01-06T14:41:07.163Z,3.70
2023-01-06T14:43:50.994Z,11.60
2023-01-06T14:46:33.554Z,2.92
2023-01-06T14:49:12.232Z,7.90
2023-01-06T14:51:43.370Z,14.05
2023-01-06T14:54:29.484Z,2.70
2023-01-06T14:57:00.031Z,7.32
2023-01-06T14:59:27.384Z,5.00
2023-01-06T15:02:02.766Z,6.55
2023-01-06T15:04:34.775Z,5.53
2023-01-06T15:07:18.906Z,8.95
2023-01-06T15:09:49.323Z,6.70
2023-01-06T15:12:31.467Z,14.15
2023-01-06T15:15:26.292Z,6.30
2023-01-06T15:17:56.096Z,6.88
2023-01-06T15:20:41.201Z,12.38
2023-01-06T15:23:15.009Z,8.05
2023-01-06T15:25:42.835Z,5.75
2023-01-06T15:28:31.252Z,15.55
2023-01-06T15:31:01.380Z,7.30
2023-01-06T15:33:38.513Z,5.95
2023-01-06T15:36:07.503Z,10.07
2023-01-06T15:38:39.520Z,19.02
2023-01-06T15:41:27.266Z,19.75
2023-01-06T15:43:55.514Z,24.67
2023-01-06T15:46:23.156Z,10.43
2023-01-06T15:48:51.437Z,12.00
2023-01-06T15:51:21.142Z,128.68
2023-01-06T15:53:55.422Z,36.35
2023-01-06T15:56:27.745Z,13.10
2023-01-06T15:58:57.547Z,10.15
2023-01-06T16:01:25.376Z,7.50
2023-01-06T16:03:59.531Z,17.75
2023-01-06T16:06:38.769Z,8.15
2023-01-06T16:09:27.146Z,8.18
2023-01-06T16:12:16.084Z,5.53
2023-01-06T16:14:46.500Z,9.10
2023-01-06T16:17:27.903Z,4.78
2023-01-06T16:20:06.661Z,8.27
2023-01-06T16:22:47.766Z,14.10
2023-01-06T16:25:20.827Z,10.55
2023-01-06T16:27:50.446Z,7.90
2023-01-06T16:32:46.288Z,4.75
2023-01-06T16:35:21.247Z,6.20
2023-01-06T16:37:49.317Z,8.13
2023-01-06T16:40:19.671Z,13.52
2023-01-06T16:42:48.941Z,4.88
2023-01-06T16:45:25.305Z,10.80
2023-01-06T16:47:54.447Z,10.27
2023-01-06T16:50:36.510Z,14.82
2023-01-06T16:53:09.414Z,17.48
2023-01-06T16:55:38.608Z,18.10
2023-01-06T16:58:16.768Z,17.92
2023-01-06T17:00:50.613Z,17.55
2023-01-06T17:03:24.428Z,36.05
2023-01-06T17:05:52.750Z,28.02
2023-01-06T17:08:34.161Z,30.60
2023-01-06T17:11:09.270Z,22.25
2023-01-06T17:13:38.307Z,35.08
2023-01-06T17:16:15.250Z,32.85
2023-01-06T17:19:25.995Z,34.50
2023-01-06T17:22:22.051Z,24.70
2023-01-06T17:24:49.707Z,22.80
2023-01-06T17:27:25.860Z,16.23
2023-01-06T17:29:54.574Z,18.58
2023-01-06T17:32:42.981Z,31.55
2023-01-06T17:35:28.701Z,36.45
2023-01-06T17:38:06.706Z,47.58
2023-01-06T17:40:36.246Z,41.15
2023-01-06T17:45:41.661Z,41.60
2023-01-06T17:48:13.287Z,39.05
2023-01-06T17:50:53.450Z,32.00
2023-01-06T17:53:53.871Z,33.17
2023-01-06T17:56:23.131Z,31.58
2023-01-06T17:58:50.431Z,41.83
2023-01-06T18:01:29.691Z,37.33
2023-01-06T18:03:59.829Z,42.95
2023-01-06T18:06:36.601Z,36.08
2023-01-06T18:09:11.988Z,36.20
2023-01-06T18:11:54.641Z,25.40
2023-01-06T18:14:32.549Z,30.40
2023-01-06T18:17:24.805Z,33.08
2023-01-06T18:19:52.268Z,41.80
2023-01-06T18:22:22.954Z,37.17
2023-01-06T18:24:52.716Z,41.60
2023-01-06T18:27:27.003Z,39.33
2023-01-06T18:30:10.227Z,69.45
2023-01-06T18:32:37.916Z,65.25
2023-01-06T18:35:16.353Z,57.28
2023-01-06T18:37:43.854Z,52.72
2023-01-06T18:40:24.138Z,42.17
2023-01-06T18:42:55.439Z,23.30
2023-01-06T18:45:36.776Z,22.90
2023-01-06T18:48:32.493Z,25.13
2023-01-06T18:51:03.315Z,24.17
2023-01-06T18:53:39.497Z,25.70
2023-01-06T18:56:16.253Z,24.33
2023-01-06T18:58:52.237Z,23.58
2023-01-06T19:01:42.121Z,23.77
2023-01-06T19:04:28.842Z,22.75
2023-01-06T19:07:01.349Z,20.02
2023-01-06T19:09:35.286Z,15.82
2023-01-06T19:12:29.781Z,24.15
2023-01-06T19:15:19.867Z,17.55
2023-01-06T19:17:48.318Z,13.65
2023-01-06T19:20:17.222Z,18.27
2023-01-06T19:22:45.202Z,35.35
2023-01-06T19:25:36.251Z,28.25
2023-01-06T19:28:18.605Z,26.75
2023-01-06T19:30:55.393Z,17.98
2023-01-06T19:33:35.856Z,32.95
2023-01-06T19:36:05.952Z,47.22
2023-01-06T19:38:43.525Z,24.98
2023-01-06T19:41:30.141Z,29.23
2023-01-06T19:44:06.272Z,34.40
2023-01-06T19:46:47.087Z,35.25
2023-01-06T19:49:35.764Z,47.60
2023-01-06T19:52:35.043Z,53.08
2023-01-06T19:55:14.571Z,43.58
2023-01-06T20:02:46.672Z,43.28
2023-01-06T20:05:13.922Z,43.05
2023-01-06T20:07:41.071Z,40.42
2023-01-06T20:10:08.807Z,42.50
2023-01-06T20:12:36.123Z,42.47
2023-01-06T20:15:06.610Z,48.75
2023-01-06T20:17:34.018Z,53.38
2023-01-06T20:20:01.230Z,44.22
2023-01-06T20:22:28.569Z,40.58
2023-01-06T20:24:55.752Z,33.75
2023-01-06T20:27:22.906Z,32.67
2023-01-06T20:29:50.382Z,34.53
2023-01-06T20:32:17.659Z,35.65
2023-01-06T20:34:44.909Z,40.20
2023-01-06T20:37:12.028Z,32.40
2023-01-06T20:39:39.241Z,34.33
2023-01-06T20:42:06.598Z,29.73
2023-01-06T20:44:33.893Z,49.08
2023-01-06T20:47:01.138Z,72.55
2023-01-06T20:49:28.430Z,45.15
2023-01-06T20:51:55.749Z,55.40
2023-01-06T20:54:22.926Z,37.25
2023-01-06T20:56:50.270Z,34.38
2023-01-06T20:59:17.510Z,34.58
2023-01-06T21:01:44.773Z,39.70
2023-01-06T21:04:12.060Z,27.00
2023-01-06T21:06:39.347Z,27.33
2023-01-06T21:09:06.573Z,23.50
2023-01-06T21:11:33.786Z,21.10
2023-01-06T21:14:01.028Z,29.33
2023-01-06T21:16:28.407Z,28.20
2023-01-06T21:18:56.950Z,31.27
2023-01-06T21:21:24.390Z,24.95
2023-01-06T21:23:51.602Z,26.55
2023-01-06T21:26:18.764Z,20.83
2023-01-06T21:28:46.032Z,22.30
2023-01-06T21:31:13.503Z,24.30
2023-01-06T21:33:40.867Z,24.55
2023-01-06T21:36:08.673Z,15.98
2023-01-06T21:38:36.850Z,14.00
2023-01-06T21:41:24.739Z,14.55
2023-01-06T21:43:52.290Z,14.60
2023-01-06T21:46:19.711Z,17.67
2023-01-06T21:48:46.933Z,18.70
2023-01-06T21:51:14.232Z,19.65
2023-01-06T21:53:41.518Z,20.48
2023-01-06T21:56:09.047Z,24.63
2023-01-06T21:58:36.271Z,24.95
2023-01-06T22:01:03.921Z,41.03
2023-01-06T22:03:31.231Z,31.52
2023-01-06T22:06:00.495Z,41.53
2023-01-06T22:08:30.909Z,40.50
2023-01-06T22:10:58.936Z,35.85
2023-01-06T22:13:26.496Z,28.40
2023-01-06T22:15:53.883Z,34.05
2023-01-06T22:18:21.132Z,35.60
2023-01-06T22:20:48.576Z,36.72
2023-01-06T22:23:20.489Z,36.78
2023-01-06T22:25:48.238Z,37.75
2023-01-06T22:28:15.442Z,38.88
2023-01-06T22:30:42.726Z,40.60
2023-01-06T22:33:09.989Z,31.98
2023-01-06T22:35:37.168Z,35.53
2023-01-06T22:38:04.397Z,31.77
2023-01-06T22:40:31.544Z,36.63
2023-01-06T22:42:58.733Z,39.97
2023-01-06T22:45:25.974Z,37.58
2023-01-06T22:47:53.133Z,36.17
2023-01-06T22:50:20.316Z,34.85
2023-01-06T22:52:47.532Z,41.22
2023-01-06T22:55:16.905Z,36.95
2023-01-06T22:57:44.577Z,36.05
2023-01-06T23:00:16.390Z,34.60
2023-01-06T23:02:44.118Z,37.33
2023-01-06T23:05:11.848Z,37.03
2023-01-06T23:07:41.878Z,36.25
2023-01-06T23:10:12.461Z,39.60
2023-01-06T23:12:41.312Z,41.20
2023-01-06T23:15:09.376Z,23.83
2023-01-06T23:17:37.491Z,24.85
2023-01-06T23:20:05.992Z,24.30
2023-01-06T23:22:33.462Z,28.50
2023-01-06T23:25:00.705Z,25.23
2023-01-06T23:27:29.363Z,28.75
2023-01-06T23:29:59.039Z,19.65
2023-01-06T23:32:26.185Z,26.05
2023-01-06T23:34:53.463Z,28.33
2023-01-06T23:37:20.726Z,27.77
2023-01-06T23:39:48.239Z,32.78
2023-01-06T23:42:15.538Z,28.33
2023-01-06T23:44:43.013Z,30.98
2023-01-06T23:47:10.290Z,33.88
2023-01-06T23:49:37.452Z,31.10
2023-01-06T23:52:04.965Z,26.95
2023-01-06T23:54:32.183Z,33.78
2023-01-06T23:56:59.417Z,30.52
2023-01-06T23:59:26.700Z,43.17
